sensor_id;sensor_type;location;lat;lon;timestamp;P1;durP1;ratioP1;P2;durP2;ratioP2
70920;SDS011;58572;48.110;19.838;2023-03-11T00:00:50;7.43;;;3.55;;
70920;SDS011;58572;48.110;19.838;2023-03-11T00:03:17;5.90;;;3.88;;
70920;SDS011;58572;48.110;19.838;2023-03-11T00:05:47;6.50;;;4.10;;
70920;SDS011;58572;48.110;19.838;2023-03-11T00:08:15;6.85;;;3.70;;
70920;SDS011;58572;48.110;19.838;2023-03-11T00:10:44;8.02;;;3.58;;
70920;SDS011;58572;48.110;19.838;2023-03-11T00:13:14;7.32;;;4.35;;
70920;SDS011;58572;48.110;19.838;2023-03-11T00:15:43;10.05;;;4.63;;
70920;SDS011;58572;48.110;19.838;2023-03-11T00:18:11;7.82;;;4.40;;
70920;SDS011;58572;48.110;19.838;2023-03-11T00:20:39;7.22;;;4.82;;
70920;SDS011;58572;48.110;19.838;2023-03-11T00:23:08;9.68;;;4.53;;
70920;SDS011;58572;48.110;19.838;2023-03-11T00:25:35;10.88;;;5.15;;
70920;SDS011;58572;48.110;19.838;2023-03-11T00:28:03;8.95;;;4.53;;
70920;SDS011;58572;48.110;19.838;2023-03-11T00:30:33;10.30;;;5.82;;
70920;SDS011;58572;48.110;19.838;2023-03-11T00:33:00;10.25;;;4.65;;
70920;SDS011;58572;48.110;19.838;2023-03-11T00:35:28;7.40;;;4.93;;
70920;SDS011;58572;48.110;19.838;2023-03-11T00:37:58;8.50;;;5.20;;
70920;SDS011;58572;48.110;19.838;2023-03-11T00:40:26;8.27;;;5.68;;
70920;SDS011;58572;48.110;19.838;2023-03-11T00:42:54;10.60;;;5.15;;
70920;SDS011;58572;48.110;19.838;2023-03-11T00:45:22;9.98;;;5.53;;
70920;SDS011;58572;48.110;19.838;2023-03-11T00:47:50;7.55;;;4.28;;
70920;SDS011;58572;48.110;19.838;2023-03-11T00:50:19;10.48;;;4.93;;
70920;SDS011;58572;48.110;19.838;2023-03-11T00:52:47;9.27;;;4.88;;
70920;SDS011;58572;48.110;19.838;2023-03-11T00:55:16;9.25;;;4.88;;
70920;SDS011;58572;48.110;19.838;2023-03-11T00:57:44;8.57;;;4.88;;
70920;SDS011;58572;48.110;19.838;2023-03-11T01:00:12;9.68;;;4.55;;
70920;SDS011;58572;48.110;19.838;2023-03-11T01:02:41;12.27;;;6.22;;
70920;SDS011;58572;48.110;19.838;2023-03-11T01:05:10;8.98;;;4.88;;
70920;SDS011;58572;48.110;19.838;2023-03-11T01:07:38;9.15;;;4.57;;
70920;SDS011;58572;48.110;19.838;2023-03-11T01:10:06;7.93;;;4.68;;
70920;SDS011;58572;48.110;19.838;2023-03-11T01:12:34;8.93;;;4.88;;
70920;SDS011;58572;48.110;19.838;2023-03-11T01:15:01;7.97;;;4.28;;
70920;SDS011;58572;48.110;19.838;2023-03-11T01:17:29;8.77;;;4.22;;
70920;SDS011;58572;48.110;19.838;2023-03-11T01:19:56;7.65;;;4.68;;
70920;SDS011;58572;48.110;19.838;2023-03-11T01:22:24;8.98;;;4.30;;
70920;SDS011;58572;48.110;19.838;2023-03-11T01:24:51;8.00;;;4.85;;
70920;SDS011;58572;48.110;19.838;2023-03-11T01:27:18;10.35;;;4.13;;
70920;SDS011;58572;48.110;19.838;2023-03-11T01:29:45;6.50;;;4.00;;
70920;SDS011;58572;48.110;19.838;2023-03-11T01:32:12;7.82;;;3.65;;
70920;SDS011;58572;48.110;19.838;2023-03-11T01:34:39;6.47;;;3.75;;
70920;SDS011;58572;48.110;19.838;2023-03-11T01:37:06;6.72;;;3.72;;
70920;SDS011;58572;48.110;19.838;2023-03-11T01:39:35;10.25;;;4.15;;
70920;SDS011;58572;48.110;19.838;2023-03-11T01:42:02;7.65;;;3.67;;
70920;SDS011;58572;48.110;19.838;2023-03-11T01:44:29;6.55;;;3.22;;
70920;SDS011;58572;48.110;19.838;2023-03-11T01:50:10;4.35;;;2.47;;
70920;SDS011;58572;48.110;19.838;2023-03-11T01:52:39;5.38;;;2.80;;
70920;SDS011;58572;48.110;19.838;2023-03-11T01:55:09;5.45;;;2.85;;
70920;SDS011;58572;48.110;19.838;2023-03-11T01:57:38;6.22;;;3.00;;
70920;SDS011;58572;48.110;19.838;2023-03-11T02:00:08;5.40;;;2.88;;
70920;SDS011;58572;48.110;19.838;2023-03-11T02:02:40;5.50;;;2.70;;
70920;SDS011;58572;48.110;19.838;2023-03-11T02:05:10;5.75;;;2.53;;
70920;SDS011;58572;48.110;19.838;2023-03-11T02:07:37;4.70;;;2.60;;
70920;SDS011;58572;48.110;19.838;2023-03-11T02:10:05;4.43;;;2.70;;
70920;SDS011;58572;48.110;19.838;2023-03-11T02:12:35;6.43;;;2.95;;
70920;SDS011;58572;48.110;19.838;2023-03-11T02:15:03;5.28;;;2.70;;
70920;SDS011;58572;48.110;19.838;2023-03-11T02:17:32;4.70;;;2.72;;
70920;SDS011;58572;48.110;19.838;2023-03-11T02:22:55;5.05;;;2.38;;
70920;SDS011;58572;48.110;19.838;2023-03-11T02:25:24;4.00;;;1.95;;
70920;SDS011;58572;48.110;19.838;2023-03-11T02:27:58;4.53;;;2.50;;
70920;SDS011;58572;48.110;19.838;2023-03-11T02:30:28;3.70;;;2.22;;
70920;SDS011;58572;48.110;19.838;2023-03-11T02:32:58;4.95;;;2.45;;
70920;SDS011;58572;48.110;19.838;2023-03-11T02:35:25;5.07;;;2.45;;
70920;SDS011;58572;48.110;19.838;2023-03-11T02:37:53;5.95;;;2.10;;
70920;SDS011;58572;48.110;19.838;2023-03-11T02:40:34;3.60;;;1.90;;
70920;SDS011;58572;48.110;19.838;2023-03-11T02:43:08;4.47;;;2.22;;
70920;SDS011;58572;48.110;19.838;2023-03-11T02:45:37;3.83;;;1.90;;
70920;SDS011;58572;48.110;19.838;2023-03-11T02:48:05;4.25;;;1.98;;
70920;SDS011;58572;48.110;19.838;2023-03-11T02:50:34;4.45;;;1.77;;
70920;SDS011;58572;48.110;19.838;2023-03-11T02:53:02;4.63;;;1.88;;
70920;SDS011;58572;48.110;19.838;2023-03-11T02:55:30;5.43;;;1.88;;
70920;SDS011;58572;48.110;19.838;2023-03-11T02:57:58;4.13;;;1.52;;
70920;SDS011;58572;48.110;19.838;2023-03-11T03:00:26;3.70;;;1.40;;
70920;SDS011;58572;48.110;19.838;2023-03-11T03:02:53;3.78;;;1.90;;
70920;SDS011;58572;48.110;19.838;2023-03-11T03:05:20;3.33;;;1.77;;
70920;SDS011;58572;48.110;19.838;2023-03-11T03:07:48;3.33;;;1.50;;
70920;SDS011;58572;48.110;19.838;2023-03-11T03:10:16;4.03;;;1.42;;
70920;SDS011;58572;48.110;19.838;2023-03-11T03:12:45;3.60;;;1.17;;
70920;SDS011;58572;48.110;19.838;2023-03-11T03:15:12;2.50;;;1.13;;
70920;SDS011;58572;48.110;19.838;2023-03-11T03:17:41;2.42;;;1.13;;
70920;SDS011;58572;48.110;19.838;2023-03-11T03:20:09;3.08;;;1.02;;
70920;SDS011;58572;48.110;19.838;2023-03-11T03:22:38;2.72;;;1.08;;
70920;SDS011;58572;48.110;19.838;2023-03-11T03:27:33;2.42;;;0.82;;
70920;SDS011;58572;48.110;19.838;2023-03-11T03:30:00;1.60;;;0.75;;
70920;SDS011;58572;48.110;19.838;2023-03-11T03:32:27;2.40;;;0.90;;
70920;SDS011;58572;48.110;19.838;2023-03-11T03:34:56;1.88;;;0.82;;
70920;SDS011;58572;48.110;19.838;2023-03-11T03:37:24;2.20;;;0.68;;
70920;SDS011;58572;48.110;19.838;2023-03-11T03:39:51;1.77;;;0.73;;
70920;SDS011;58572;48.110;19.838;2023-03-11T03:42:18;1.83;;;0.77;;
70920;SDS011;58572;48.110;19.838;2023-03-11T03:44:45;1.40;;;0.60;;
70920;SDS011;58572;48.110;19.838;2023-03-11T03:47:12;1.60;;;0.80;;
70920;SDS011;58572;48.110;19.838;2023-03-11T03:49:40;2.20;;;0.82;;
70920;SDS011;58572;48.110;19.838;2023-03-11T03:52:08;1.40;;;0.73;;
70920;SDS011;58572;48.110;19.838;2023-03-11T03:54:35;1.90;;;0.90;;
70920;SDS011;58572;48.110;19.838;2023-03-11T03:57:03;1.83;;;0.60;;
70920;SDS011;58572;48.110;19.838;2023-03-11T03:59:30;1.50;;;0.63;;
70920;SDS011;58572;48.110;19.838;2023-03-11T04:01:57;1.30;;;0.80;;
70920;SDS011;58572;48.110;19.838;2023-03-11T04:04:25;2.50;;;0.80;;
70920;SDS011;58572;48.110;19.838;2023-03-11T04:06:52;2.03;;;0.68;;
70920;SDS011;58572;48.110;19.838;2023-03-11T04:09:21;1.38;;;0.80;;
70920;SDS011;58572;48.110;19.838;2023-03-11T04:11:48;1.40;;;0.70;;
70920;SDS011;58572;48.110;19.838;2023-03-11T04:14:15;1.20;;;0.63;;
70920;SDS011;58572;48.110;19.838;2023-03-11T04:16:42;2.00;;;0.73;;
70920;SDS011;58572;48.110;19.838;2023-03-11T04:19:09;3.60;;;0.93;;
70920;SDS011;58572;48.110;19.838;2023-03-11T04:21:37;1.70;;;0.77;;
70920;SDS011;58572;48.110;19.838;2023-03-11T04:24:05;2.55;;;0.70;;
70920;SDS011;58572;48.110;19.838;2023-03-11T04:26:36;1.23;;;0.47;;
70920;SDS011;58572;48.110;19.838;2023-03-11T04:29:03;1.75;;;0.57;;
70920;SDS011;58572;48.110;19.838;2023-03-11T04:31:30;1.90;;;0.60;;
70920;SDS011;58572;48.110;19.838;2023-03-11T04:33:57;1.83;;;0.68;;
70920;SDS011;58572;48.110;19.838;2023-03-11T04:36:24;1.75;;;0.60;;
70920;SDS011;58572;48.110;19.838;2023-03-11T04:38:52;1.60;;;0.70;;
70920;SDS011;58572;48.110;19.838;2023-03-11T04:41:20;1.92;;;0.52;;
70920;SDS011;58572;48.110;19.838;2023-03-11T04:43:49;1.08;;;0.52;;
70920;SDS011;58572;48.110;19.838;2023-03-11T04:46:16;0.98;;;0.45;;
70920;SDS011;58572;48.110;19.838;2023-03-11T04:48:43;2.30;;;0.68;;
70920;SDS011;58572;48.110;19.838;2023-03-11T04:51:10;2.75;;;0.57;;
70920;SDS011;58572;48.110;19.838;2023-03-11T04:53:37;2.08;;;0.63;;
70920;SDS011;58572;48.110;19.838;2023-03-11T04:56:04;0.90;;;0.57;;
70920;SDS011;58572;48.110;19.838;2023-03-11T04:58:32;1.02;;;0.50;;
70920;SDS011;58572;48.110;19.838;2023-03-11T05:01:00;0.98;;;0.47;;
70920;SDS011;58572;48.110;19.838;2023-03-11T05:03:27;0.82;;;0.40;;
70920;SDS011;58572;48.110;19.838;2023-03-11T05:05:54;0.82;;;0.60;;
70920;SDS011;58572;48.110;19.838;2023-03-11T05:08:21;1.80;;;0.35;;
70920;SDS011;58572;48.110;19.838;2023-03-11T05:10:49;1.50;;;0.80;;
70920;SDS011;58572;48.110;19.838;2023-03-11T05:13:17;1.20;;;0.65;;
70920;SDS011;58572;48.110;19.838;2023-03-11T05:15:44;1.08;;;0.52;;
70920;SDS011;58572;48.110;19.838;2023-03-11T05:18:13;1.33;;;0.75;;
70920;SDS011;58572;48.110;19.838;2023-03-11T05:20:40;0.85;;;0.52;;
70920;SDS011;58572;48.110;19.838;2023-03-11T05:23:07;1.95;;;0.73;;
70920;SDS011;58572;48.110;19.838;2023-03-11T05:25:34;1.70;;;0.50;;
70920;SDS011;58572;48.110;19.838;2023-03-11T05:28:01;1.08;;;0.60;;
70920;SDS011;58572;48.110;19.838;2023-03-11T05:30:29;0.90;;;0.52;;
70920;SDS011;58572;48.110;19.838;2023-03-11T05:32:56;0.85;;;0.60;;
70920;SDS011;58572;48.110;19.838;2023-03-11T05:35:24;1.92;;;0.63;;
70920;SDS011;58572;48.110;19.838;2023-03-11T05:37:51;1.48;;;1.02;;
70920;SDS011;58572;48.110;19.838;2023-03-11T05:40:19;2.17;;;0.90;;
70920;SDS011;58572;48.110;19.838;2023-03-11T05:42:46;2.22;;;0.73;;
70920;SDS011;58572;48.110;19.838;2023-03-11T05:45:14;1.83;;;0.85;;
70920;SDS011;58572;48.110;19.838;2023-03-11T05:47:41;1.50;;;0.75;;
70920;SDS011;58572;48.110;19.838;2023-03-11T05:50:09;1.50;;;0.73;;
70920;SDS011;58572;48.110;19.838;2023-03-11T05:52:39;3.03;;;0.77;;
70920;SDS011;58572;48.110;19.838;2023-03-11T05:55:07;2.50;;;0.68;;
70920;SDS011;58572;48.110;19.838;2023-03-11T05:57:38;1.77;;;0.88;;
70920;SDS011;58572;48.110;19.838;2023-03-11T06:00:07;1.13;;;0.60;;
70920;SDS011;58572;48.110;19.838;2023-03-11T06:02:36;1.50;;;0.70;;
70920;SDS011;58572;48.110;19.838;2023-03-11T06:05:05;1.70;;;0.80;;
70920;SDS011;58572;48.110;19.838;2023-03-11T06:07:34;2.10;;;1.10;;
70920;SDS011;58572;48.110;19.838;2023-03-11T06:10:03;1.33;;;0.70;;
70920;SDS011;58572;48.110;19.838;2023-03-11T06:12:32;1.42;;;0.57;;
70920;SDS011;58572;48.110;19.838;2023-03-11T06:14:59;1.70;;;0.80;;
70920;SDS011;58572;48.110;19.838;2023-03-11T06:17:26;1.63;;;0.82;;
70920;SDS011;58572;48.110;19.838;2023-03-11T06:19:54;1.50;;;0.63;;
70920;SDS011;58572;48.110;19.838;2023-03-11T06:22:21;1.67;;;1.05;;
70920;SDS011;58572;48.110;19.838;2023-03-11T06:24:48;1.52;;;0.98;;
70920;SDS011;58572;48.110;19.838;2023-03-11T06:27:17;0.93;;;0.73;;
70920;SDS011;58572;48.110;19.838;2023-03-11T06:29:44;1.85;;;0.80;;
70920;SDS011;58572;48.110;19.838;2023-03-11T06:32:12;1.10;;;0.50;;
70920;SDS011;58572;48.110;19.838;2023-03-11T06:34:39;1.83;;;0.82;;
70920;SDS011;58572;48.110;19.838;2023-03-11T06:37:06;1.83;;;0.85;;
70920;SDS011;58572;48.110;19.838;2023-03-11T06:39:33;1.98;;;0.93;;
70920;SDS011;58572;48.110;19.838;2023-03-11T06:42:00;1.95;;;1.00;;
70920;SDS011;58572;48.110;19.838;2023-03-11T06:44:29;1.38;;;0.80;;
70920;SDS011;58572;48.110;19.838;2023-03-11T06:46:56;1.75;;;1.05;;
70920;SDS011;58572;48.110;19.838;2023-03-11T06:49:23;2.45;;;1.17;;
70920;SDS011;58572;48.110;19.838;2023-03-11T06:51:50;2.78;;;1.08;;
70920;SDS011;58572;48.110;19.838;2023-03-11T06:54:17;2.28;;;1.20;;
70920;SDS011;58572;48.110;19.838;2023-03-11T06:56:44;2.08;;;1.25;;
70920;SDS011;58572;48.110;19.838;2023-03-11T06:59:13;4.55;;;1.15;;
70920;SDS011;58572;48.110;19.838;2023-03-11T07:01:41;1.48;;;0.57;;
70920;SDS011;58572;48.110;19.838;2023-03-11T07:04:08;1.80;;;0.93;;
70920;SDS011;58572;48.110;19.838;2023-03-11T07:06:36;1.85;;;1.05;;
70920;SDS011;58572;48.110;19.838;2023-03-11T07:09:03;2.10;;;1.08;;
70920;SDS011;58572;48.110;19.838;2023-03-11T07:11:30;1.65;;;0.80;;
70920;SDS011;58572;48.110;19.838;2023-03-11T07:13:57;1.63;;;0.85;;
70920;SDS011;58572;48.110;19.838;2023-03-11T07:16:26;2.50;;;1.20;;
70920;SDS011;58572;48.110;19.838;2023-03-11T07:18:56;1.27;;;0.68;;
70920;SDS011;58572;48.110;19.838;2023-03-11T07:21:27;1.30;;;0.73;;
70920;SDS011;58572;48.110;19.838;2023-03-11T07:23:57;1.63;;;0.70;;
70920;SDS011;58572;48.110;19.838;2023-03-11T07:26:26;1.88;;;1.10;;
70920;SDS011;58572;48.110;19.838;2023-03-11T07:28:54;1.88;;;0.70;;
70920;SDS011;58572;48.110;19.838;2023-03-11T07:31:23;1.42;;;0.73;;
70920;SDS011;58572;48.110;19.838;2023-03-11T07:33:51;1.33;;;0.60;;
70920;SDS011;58572;48.110;19.838;2023-03-11T07:36:21;1.92;;;0.80;;
70920;SDS011;58572;48.110;19.838;2023-03-11T07:38:53;1.98;;;1.00;;
70920;SDS011;58572;48.110;19.838;2023-03-11T07:41:23;1.05;;;0.65;;
70920;SDS011;58572;48.110;19.838;2023-03-11T07:43:52;2.03;;;0.85;;
70920;SDS011;58572;48.110;19.838;2023-03-11T07:46:21;1.92;;;1.00;;
70920;SDS011;58572;48.110;19.838;2023-03-11T07:48:49;1.20;;;0.70;;
70920;SDS011;58572;48.110;19.838;2023-03-11T07:51:18;2.17;;;0.90;;
70920;SDS011;58572;48.110;19.838;2023-03-11T07:53:48;1.85;;;1.08;;
70920;SDS011;58572;48.110;19.838;2023-03-11T07:56:18;1.63;;;0.82;;
70920;SDS011;58572;48.110;19.838;2023-03-11T07:58:46;2.03;;;0.95;;
70920;SDS011;58572;48.110;19.838;2023-03-11T08:01:14;4.13;;;1.20;;
70920;SDS011;58572;48.110;19.838;2023-03-11T08:03:43;1.60;;;0.90;;
70920;SDS011;58572;48.110;19.838;2023-03-11T08:06:12;2.70;;;1.13;;
70920;SDS011;58572;48.110;19.838;2023-03-11T08:08:40;1.58;;;0.68;;
70920;SDS011;58572;48.110;19.838;2023-03-11T08:11:09;1.67;;;1.05;;
70920;SDS011;58572;48.110;19.838;2023-03-11T08:13:38;1.90;;;0.98;;
70920;SDS011;58572;48.110;19.838;2023-03-11T08:16:05;0.95;;;0.75;;
70920;SDS011;58572;48.110;19.838;2023-03-11T08:18:34;0.93;;;0.40;;
70920;SDS011;58572;48.110;19.838;2023-03-11T08:21:03;3.97;;;1.05;;
70920;SDS011;58572;48.110;19.838;2023-03-11T08:23:30;1.30;;;0.68;;
70920;SDS011;58572;48.110;19.838;2023-03-11T08:25:57;1.73;;;0.85;;
70920;SDS011;58572;48.110;19.838;2023-03-11T08:28:26;1.45;;;0.80;;
70920;SDS011;58572;48.110;19.838;2023-03-11T08:30:53;2.03;;;1.05;;
70920;SDS011;58572;48.110;19.838;2023-03-11T08:33:20;2.10;;;1.00;;
70920;SDS011;58572;48.110;19.838;2023-03-11T08:35:48;2.42;;;1.00;;
70920;SDS011;58572;48.110;19.838;2023-03-11T08:38:15;1.75;;;0.88;;
70920;SDS011;58572;48.110;19.838;2023-03-11T08:40:42;1.83;;;0.90;;
70920;SDS011;58572;48.110;19.838;2023-03-11T08:43:11;1.80;;;0.88;;
70920;SDS011;58572;48.110;19.838;2023-03-11T08:45:40;1.75;;;0.93;;
70920;SDS011;58572;48.110;19.838;2023-03-11T08:48:08;2.78;;;0.50;;
70920;SDS011;58572;48.110;19.838;2023-03-11T08:50:36;1.17;;;0.57;;
70920;SDS011;58572;48.110;19.838;2023-03-11T08:53:04;1.55;;;0.77;;
70920;SDS011;58572;48.110;19.838;2023-03-11T08:55:33;1.05;;;0.63;;
70920;SDS011;58572;48.110;19.838;2023-03-11T08:58:00;1.83;;;0.90;;
70920;SDS011;58572;48.110;19.838;2023-03-11T09:00:27;0.88;;;0.47;;
70920;SDS011;58572;48.110;19.838;2023-03-11T09:02:56;1.55;;;0.70;;
70920;SDS011;58572;48.110;19.838;2023-03-11T09:05:24;2.10;;;0.77;;
70920;SDS011;58572;48.110;19.838;2023-03-11T09:07:51;1.55;;;0.70;;
70920;SDS011;58572;48.110;19.838;2023-03-11T09:10:18;1.67;;;0.88;;
70920;SDS011;58572;48.110;19.838;2023-03-11T09:12:45;1.55;;;0.80;;
70920;SDS011;58572;48.110;19.838;2023-03-11T09:15:13;1.52;;;0.65;;
70920;SDS011;58572;48.110;19.838;2023-03-11T09:17:39;2.03;;;0.77;;
70920;SDS011;58572;48.110;19.838;2023-03-11T09:20:10;1.38;;;0.60;;
70920;SDS011;58572;48.110;19.838;2023-03-11T09:22:38;2.53;;;0.52;;
70920;SDS011;58572;48.110;19.838;2023-03-11T09:25:06;1.52;;;0.85;;
70920;SDS011;58572;48.110;19.838;2023-03-11T09:27:33;2.95;;;0.90;;
70920;SDS011;58572;48.110;19.838;2023-03-11T09:30:01;1.60;;;0.77;;
70920;SDS011;58572;48.110;19.838;2023-03-11T09:32:28;1.50;;;1.02;;
70920;SDS011;58572;48.110;19.838;2023-03-11T09:34:55;2.72;;;0.85;;
70920;SDS011;58572;48.110;19.838;2023-03-11T09:37:25;1.63;;;0.73;;
70920;SDS011;58572;48.110;19.838;2023-03-11T09:39:54;1.48;;;0.80;;
70920;SDS011;58572;48.110;19.838;2023-03-11T09:42:23;1.42;;;0.80;;
70920;SDS011;58572;48.110;19.838;2023-03-11T09:45:02;1.50;;;0.77;;
70920;SDS011;58572;48.110;19.838;2023-03-11T09:47:37;1.17;;;0.68;;
70920;SDS011;58572;48.110;19.838;2023-03-11T09:50:14;0.80;;;0.60;;
70920;SDS011;58572;48.110;19.838;2023-03-11T09:52:54;2.00;;;0.90;;
70920;SDS011;58572;48.110;19.838;2023-03-11T09:55:40;1.33;;;0.75;;
70920;SDS011;58572;48.110;19.838;2023-03-11T09:58:11;1.15;;;0.60;;
70920;SDS011;58572;48.110;19.838;2023-03-11T10:00:42;1.13;;;0.75;;
70920;SDS011;58572;48.110;19.838;2023-03-11T10:03:13;0.90;;;0.52;;
70920;SDS011;58572;48.110;19.838;2023-03-11T10:05:50;0.98;;;0.50;;
70920;SDS011;58572;48.110;19.838;2023-03-11T10:08:23;1.13;;;0.70;;
70920;SDS011;58572;48.110;19.838;2023-03-11T10:11:00;1.40;;;0.70;;
70920;SDS011;58572;48.110;19.838;2023-03-11T10:13:39;0.55;;;0.43;;
70920;SDS011;58572;48.110;19.838;2023-03-11T10:16:13;0.85;;;0.52;;
70920;SDS011;58572;48.110;19.838;2023-03-11T10:18:52;2.00;;;0.95;;
70920;SDS011;58572;48.110;19.838;2023-03-11T10:21:33;1.02;;;0.63;;
70920;SDS011;58572;48.110;19.838;2023-03-11T10:24:13;1.08;;;0.70;;
70920;SDS011;58572;48.110;19.838;2023-03-11T10:26:52;0.57;;;0.45;;
70920;SDS011;58572;48.110;19.838;2023-03-11T10:29:25;2.08;;;0.95;;
70920;SDS011;58572;48.110;19.838;2023-03-11T10:31:55;1.73;;;0.82;;
70920;SDS011;58572;48.110;19.838;2023-03-11T10:34:27;1.95;;;0.80;;
70920;SDS011;58572;48.110;19.838;2023-03-11T10:37:04;0.68;;;0.50;;
70920;SDS011;58572;48.110;19.838;2023-03-11T10:39:38;0.57;;;0.52;;
70920;SDS011;58572;48.110;19.838;2023-03-11T10:42:09;1.52;;;0.98;;
70920;SDS011;58572;48.110;19.838;2023-03-11T10:44:40;20.40;;;8.60;;
70920;SDS011;58572;48.110;19.838;2023-03-11T10:47:12;1.60;;;0.68;;
70920;SDS011;58572;48.110;19.838;2023-03-11T10:49:43;1.92;;;0.65;;
70920;SDS011;58572;48.110;19.838;2023-03-11T10:52:10;0.40;;;0.40;;
70920;SDS011;58572;48.110;19.838;2023-03-11T10:54:40;1.23;;;0.65;;
70920;SDS011;58572;48.110;19.838;2023-03-11T11:10:20;1.50;;;1.00;;
70920;SDS011;58572;48.110;19.838;2023-03-11T11:12:52;1.35;;;0.73;;
70920;SDS011;58572;48.110;19.838;2023-03-11T11:15:22;1.35;;;0.63;;
70920;SDS011;58572;48.110;19.838;2023-03-11T11:17:50;2.05;;;1.20;;
70920;SDS011;58572;48.110;19.838;2023-03-11T11:20:20;0.95;;;0.50;;
70920;SDS011;58572;48.110;19.838;2023-03-11T11:22:50;1.42;;;0.95;;
70920;SDS011;58572;48.110;19.838;2023-03-11T11:25:25;1.30;;;0.75;;
70920;SDS011;58572;48.110;19.838;2023-03-11T11:27:54;1.10;;;0.70;;
70920;SDS011;58572;48.110;19.838;2023-03-11T11:30:23;1.45;;;0.75;;
70920;SDS011;58572;48.110;19.838;2023-03-11T11:32:51;1.10;;;0.70;;
70920;SDS011;58572;48.110;19.838;2023-03-11T11:35:20;0.80;;;0.52;;
70920;SDS011;58572;48.110;19.838;2023-03-11T11:37:50;1.10;;;0.52;;
70920;SDS011;58572;48.110;19.838;2023-03-11T11:40:27;1.13;;;0.60;;
70920;SDS011;58572;48.110;19.838;2023-03-11T11:42:58;3.60;;;0.60;;
70920;SDS011;58572;48.110;19.838;2023-03-11T11:45:33;1.60;;;0.90;;
70920;SDS011;58572;48.110;19.838;2023-03-11T11:48:05;1.95;;;0.93;;
70920;SDS011;58572;48.110;19.838;2023-03-11T11:50:40;1.20;;;0.73;;
70920;SDS011;58572;48.110;19.838;2023-03-11T11:53:13;0.43;;;0.40;;
70920;SDS011;58572;48.110;19.838;2023-03-11T11:55:50;0.70;;;0.40;;
70920;SDS011;58572;48.110;19.838;2023-03-11T11:58:19;1.02;;;0.50;;
70920;SDS011;58572;48.110;19.838;2023-03-11T12:00:54;2.05;;;1.10;;
70920;SDS011;58572;48.110;19.838;2023-03-11T12:03:38;4.40;;;2.30;;
70920;SDS011;58572;48.110;19.838;2023-03-11T12:06:15;3.50;;;2.05;;
70920;SDS011;58572;48.110;19.838;2023-03-11T12:08:50;0.47;;;0.43;;
70920;SDS011;58572;48.110;19.838;2023-03-11T12:11:32;1.70;;;0.73;;
70920;SDS011;58572;48.110;19.838;2023-03-11T12:14:06;2.55;;;1.10;;
70920;SDS011;58572;48.110;19.838;2023-03-11T12:16:41;2.85;;;1.35;;
70920;SDS011;58572;48.110;19.838;2023-03-11T12:19:18;2.05;;;1.20;;
70920;SDS011;58572;48.110;19.838;2023-03-11T12:22:13;1.42;;;0.73;;
70920;SDS011;58572;48.110;19.838;2023-03-11T12:25:02;2.50;;;0.93;;
70920;SDS011;58572;48.110;19.838;2023-03-11T12:27:42;4.07;;;2.25;;
70920;SDS011;58572;48.110;19.838;2023-03-11T12:30:15;7.43;;;2.72;;
70920;SDS011;58572;48.110;19.838;2023-03-11T12:32:46;6.15;;;4.07;;
70920;SDS011;58572;48.110;19.838;2023-03-11T12:35:21;3.33;;;1.60;;
70920;SDS011;58572;48.110;19.838;2023-03-11T12:37:55;4.40;;;2.15;;
70920;SDS011;58572;48.110;19.838;2023-03-11T12:49:39;1.75;;;0.75;;
70920;SDS011;58572;48.110;19.838;2023-03-11T12:52:21;1.60;;;0.82;;
70920;SDS011;58572;48.110;19.838;2023-03-11T12:57:57;0.88;;;0.57;;
70920;SDS011;58572;48.110;19.838;2023-03-11T13:00:37;2.30;;;0.90;;
70920;SDS011;58572;48.110;19.838;2023-03-11T13:03:22;1.63;;;0.50;;
70920;SDS011;58572;48.110;19.838;2023-03-11T13:06:13;2.13;;;0.43;;
70920;SDS011;58572;48.110;19.838;2023-03-11T13:08:53;1.70;;;0.50;;
70920;SDS011;58572;48.110;19.838;2023-03-11T13:11:38;0.88;;;0.55;;
70920;SDS011;58572;48.110;19.838;2023-03-11T13:17:17;0.68;;;0.57;;
70920;SDS011;58572;48.110;19.838;2023-03-11T13:19:52;1.33;;;0.63;;
70920;SDS011;58572;48.110;19.838;2023-03-11T13:25:32;1.00;;;0.60;;
70920;SDS011;58572;48.110;19.838;2023-03-11T13:31:26;1.33;;;0.57;;
70920;SDS011;58572;48.110;19.838;2023-03-11T13:34:09;1.20;;;0.35;;
70920;SDS011;58572;48.110;19.838;2023-03-11T13:39:40;0.30;;;0.30;;
70920;SDS011;58572;48.110;19.838;2023-03-11T13:42:17;2.20;;;0.68;;
70920;SDS011;58572;48.110;19.838;2023-03-11T13:44:52;1.70;;;0.85;;
70920;SDS011;58572;48.110;19.838;2023-03-11T13:47:19;1.65;;;1.17;;
70920;SDS011;58572;48.110;19.838;2023-03-11T13:49:49;2.13;;;1.10;;
70920;SDS011;58572;48.110;19.838;2023-03-11T13:52:23;3.25;;;1.70;;
70920;SDS011;58572;48.110;19.838;2023-03-11T13:54:56;3.60;;;2.20;;
70920;SDS011;58572;48.110;19.838;2023-03-11T13:57:28;2.63;;;1.40;;
70920;SDS011;58572;48.110;19.838;2023-03-11T13:59:56;4.60;;;2.45;;
70920;SDS011;58572;48.110;19.838;2023-03-11T14:02:30;2.78;;;1.50;;
70920;SDS011;58572;48.110;19.838;2023-03-11T14:05:02;2.70;;;1.45;;
70920;SDS011;58572;48.110;19.838;2023-03-11T14:07:33;1.63;;;1.00;;
70920;SDS011;58572;48.110;19.838;2023-03-11T14:13:05;1.35;;;0.80;;
70920;SDS011;58572;48.110;19.838;2023-03-11T14:15:45;1.70;;;1.00;;
70920;SDS011;58572;48.110;19.838;2023-03-11T14:18:26;15.00;;;4.90;;
70920;SDS011;58572;48.110;19.838;2023-03-11T14:20:58;1.70;;;0.80;;
70920;SDS011;58572;48.110;19.838;2023-03-11T14:23:28;2.42;;;1.00;;
70920;SDS011;58572;48.110;19.838;2023-03-11T14:26:00;1.30;;;0.63;;
70920;SDS011;58572;48.110;19.838;2023-03-11T14:28:31;1.33;;;0.75;;
70920;SDS011;58572;48.110;19.838;2023-03-11T14:31:03;0.95;;;0.70;;
70920;SDS011;58572;48.110;19.838;2023-03-11T14:33:32;0.70;;;0.52;;
70920;SDS011;58572;48.110;19.838;2023-03-11T14:36:01;0.45;;;0.40;;
70920;SDS011;58572;48.110;19.838;2023-03-11T14:38:29;1.15;;;0.57;;
70920;SDS011;58572;48.110;19.838;2023-03-11T14:40:58;2.47;;;0.90;;
70920;SDS011;58572;48.110;19.838;2023-03-11T14:43:31;0.70;;;0.50;;
70920;SDS011;58572;48.110;19.838;2023-03-11T14:46:03;1.40;;;0.75;;
70920;SDS011;58572;48.110;19.838;2023-03-11T14:48:34;3.20;;;0.77;;
70920;SDS011;58572;48.110;19.838;2023-03-11T14:51:04;0.77;;;0.70;;
70920;SDS011;58572;48.110;19.838;2023-03-11T14:53:40;1.02;;;0.60;;
70920;SDS011;58572;48.110;19.838;2023-03-11T14:56:13;1.33;;;0.75;;
70920;SDS011;58572;48.110;19.838;2023-03-11T14:58:45;0.93;;;0.63;;
70920;SDS011;58572;48.110;19.838;2023-03-11T15:01:20;0.90;;;0.43;;
70920;SDS011;58572;48.110;19.838;2023-03-11T15:03:50;1.92;;;1.60;;
70920;SDS011;58572;48.110;19.838;2023-03-11T15:06:22;1.52;;;0.65;;
70920;SDS011;58572;48.110;19.838;2023-03-11T15:08:54;1.92;;;0.77;;
70920;SDS011;58572;48.110;19.838;2023-03-11T15:11:26;2.53;;;0.77;;
70920;SDS011;58572;48.110;19.838;2023-03-11T15:13:54;0.43;;;0.43;;
70920;SDS011;58572;48.110;19.838;2023-03-11T15:16:40;1.52;;;0.80;;
70920;SDS011;58572;48.110;19.838;2023-03-11T15:19:20;1.10;;;0.70;;
70920;SDS011;58572;48.110;19.838;2023-03-11T15:21:49;1.20;;;0.90;;
70920;SDS011;58572;48.110;19.838;2023-03-11T15:24:19;2.22;;;0.50;;
70920;SDS011;58572;48.110;19.838;2023-03-11T15:26:56;3.33;;;0.60;;
70920;SDS011;58572;48.110;19.838;2023-03-11T15:29:25;1.10;;;0.68;;
70920;SDS011;58572;48.110;19.838;2023-03-11T15:31:53;1.17;;;0.70;;
70920;SDS011;58572;48.110;19.838;2023-03-11T15:34:23;1.60;;;0.75;;
70920;SDS011;58572;48.110;19.838;2023-03-11T15:36:54;1.40;;;0.68;;
70920;SDS011;58572;48.110;19.838;2023-03-11T15:39:43;1.27;;;0.52;;